Waynesville, NC (28785)

11:01 PM EST on January 19, 2017 (GMT -0500)
Historic Oak (Stone Gate) | | Change Station

Elev 3000 ft 35.60 °N, 83.03 °W | Updated 35 seconds ago

Mostly Cloudy
Mostly Cloudy
56.0 °F
Feels Like 56.0 °F
N
5.0
Wind Variable Wind from ESE

Today
High -- | Low -- °F
--% Chance of Precip.
Yesterday
High -- | Low -- °F
Precip. -- in
Pressure 29.94 in
Visibility 10.0 miles
Clouds Scattered Clouds 3200 ft
Mostly Cloudy 5000 ft
Mostly Cloudy 6000 ft
Dew Point 49 °F
Humidity 79%
Rainfall 0.00 in
Snow Depth Not available.
7:39 AM 5:46 PM
Waning Gibbous, 48% visible
METAR KAVL 200354Z AUTO 15005KT 10SM SCT032 BKN050 BKN060 12/02 A2996 RMK AO2 SLP136 T01170017
Pressure 29.94 in
Visibility 10.0 miles
Clouds Scattered Clouds 3200 ft
Mostly Cloudy 5000 ft
Mostly Cloudy 6000 ft
Dew Point 49 °F
Humidity 79%
Rainfall 0.00 in
Snow Depth Not available.
7:39 AM 5:46 PM
Waning Gibbous, 48% visible
METAR KAVL 200354Z AUTO 15005KT 10SM SCT032 BKN050 BKN060 12/02 A2996 RMK AO2 SLP136 T01170017

Get Your Daily Forecast Email!

Thanks for signing up!

Be on the lookout for a verification email in your inbox.

You'll start receiving the daily forecast at 8 AM.

×

10-Day Weather Forecast

Almanac

Astronomy

Jan. 19, 2017 Rise Set
Actual Time
Civil Twilight
Nautical Twilight
Astronomical Twilight
Moon
Length of Visible Light
Length of Day
Tomorrow will be .
, % of the Moon is Illuminated

Today's Extremes

State Highs State Lows

Community

WunderPhotos

Upload Photos

1,962,540 photos uploaded!

WunderBlog® & News

Nearby

Air Quality

  Air Quality AQ Index Pollutant
Not available.

Snow Depth

Station Depth Elevation

Earthquake Activity

City Distance Mag. Time & Date
Minimum magnitude displayed is 2.5.

Coastal Water Temperatures

Place Temperature

Stations

Nearby Weather Stations

Station Location Temp. Windchill Dew Point Humidity Wind Precip. Elev Updated Type
                   

Watches & Warnings

There are currently no watches in effect.